createdAt,value
2018-04-10T00:00:58.016Z,9.70
2018-04-10T00:03:27.029Z,10.87
2018-04-10T00:05:55.262Z,10.27
2018-04-10T00:08:23.332Z,13.93
2018-04-10T00:10:51.815Z,9.33
2018-04-10T00:13:20.007Z,8.63
2018-04-10T00:15:48.059Z,11.43
2018-04-10T00:18:17.221Z,9.80
2018-04-10T00:20:45.647Z,9.73
2018-04-10T00:23:15.773Z,10.23
2018-04-10T00:25:43.865Z,9.83
2018-04-10T00:28:11.831Z,10.20
2018-04-10T00:30:40.860Z,13.10
2018-04-10T00:33:10.630Z,8.60
2018-04-10T00:35:39.624Z,8.03
2018-04-10T00:38:08.800Z,10.07
2018-04-10T00:40:36.965Z,11.60
2018-04-10T00:43:06.252Z,8.43
2018-04-10T00:45:34.515Z,10.00
2018-04-10T00:48:03.491Z,10.40
2018-04-10T00:50:32.564Z,9.83
2018-04-10T00:53:02.913Z,9.70
2018-04-10T00:55:31.240Z,10.37
2018-04-10T00:57:59.546Z,10.27
2018-04-10T01:00:28.429Z,9.20
2018-04-10T01:02:56.824Z,9.87
2018-04-10T01:05:25.469Z,10.80
2018-04-10T01:07:54.566Z,12.47
2018-04-10T01:10:23.477Z,10.40
2018-04-10T01:12:51.834Z,8.67
2018-04-10T01:15:20.318Z,8.30
2018-04-10T01:17:48.404Z,9.43
2018-04-10T01:20:17.575Z,9.37
2018-04-10T01:22:45.671Z,8.97
2018-04-10T01:25:14.449Z,10.13
2018-04-10T01:27:42.918Z,9.30
2018-04-10T01:30:11.033Z,9.40
2018-04-10T01:32:40.191Z,10.40
2018-04-10T01:35:09.552Z,10.07
2018-04-10T01:37:38.506Z,10.47
2018-04-10T01:40:06.657Z,9.60
2018-04-10T01:42:35.857Z,10.87
2018-04-10T01:45:04.147Z,12.77
2018-04-10T01:47:32.370Z,9.03
2018-04-10T01:50:00.376Z,8.20
2018-04-10T01:52:29.838Z,8.97
2018-04-10T01:54:58.261Z,9.67
2018-04-10T01:57:26.879Z,9.43
2018-04-10T01:59:55.336Z,9.73
2018-04-10T02:02:23.802Z,10.53
2018-04-10T02:04:52.317Z,9.30
2018-04-10T02:07:20.332Z,11.43
2018-04-10T02:09:49.367Z,10.23
2018-04-10T02:12:17.633Z,10.50
2018-04-10T02:14:45.708Z,10.20
2018-04-10T02:17:14.599Z,11.20
2018-04-10T02:19:42.896Z,13.07
2018-04-10T02:22:11.466Z,10.73
2018-04-10T02:24:39.522Z,9.90
2018-04-10T02:27:07.649Z,9.00
2018-04-10T02:29:36.609Z,9.60
2018-04-10T02:32:05.513Z,11.20
2018-04-10T02:34:33.652Z,11.13
2018-04-10T02:37:02.716Z,12.00
2018-04-10T02:39:31.840Z,13.47
2018-04-10T02:42:00.910Z,10.97
2018-04-10T02:44:30.134Z,10.80
2018-04-10T02:46:59.118Z,10.17
2018-04-10T02:49:27.815Z,10.70
2018-04-10T02:51:55.989Z,10.13
2018-04-10T02:54:24.059Z,11.43
2018-04-10T02:56:52.975Z,11.80
2018-04-10T02:59:21.346Z,12.60
2018-04-10T03:01:49.414Z,10.03
2018-04-10T03:04:17.587Z,11.03
2018-04-10T03:06:45.863Z,10.90
2018-04-10T03:09:14.361Z,10.27
2018-04-10T03:11:42.534Z,11.30
2018-04-10T03:14:11.526Z,11.60
2018-04-10T03:16:40.630Z,10.83
2018-04-10T03:19:08.874Z,11.30
2018-04-10T03:21:37.692Z,11.83
2018-04-10T03:24:05.643Z,12.43
2018-04-10T03:26:34.034Z,9.10
2018-04-10T03:29:02.098Z,9.40
2018-04-10T03:31:30.285Z,10.13
2018-04-10T03:33:58.455Z,10.87
2018-04-10T03:36:26.530Z,11.63
2018-04-10T03:38:54.498Z,11.37
2018-04-10T03:41:22.555Z,11.30
2018-04-10T03:43:51.357Z,10.30
2018-04-10T03:46:19.206Z,11.40
2018-04-10T03:48:47.928Z,11.77
2018-04-10T03:51:16.056Z,13.00
2018-04-10T03:53:44.250Z,12.50
2018-04-10T03:56:12.209Z,9.33
2018-04-10T03:58:40.371Z,8.97
2018-04-10T04:01:08.437Z,8.40
2018-04-10T04:03:36.385Z,8.97
2018-04-10T04:06:04.385Z,8.73
2018-04-10T04:08:32.464Z,11.97
2018-04-10T04:11:00.755Z,11.60
2018-04-10T04:13:28.673Z,10.63
2018-04-10T04:15:57.440Z,12.00
2018-04-10T04:18:25.524Z,11.63
2018-04-10T04:20:54.367Z,11.63
2018-04-10T04:23:22.419Z,11.60
2018-04-10T04:25:50.523Z,12.90
2018-04-10T04:28:18.583Z,9.70
2018-04-10T04:30:46.948Z,9.43
2018-04-10T04:33:16.046Z,10.20
2018-04-10T04:35:44.237Z,10.03
2018-04-10T04:38:12.627Z,11.63
2018-04-10T04:40:40.896Z,11.60
2018-04-10T04:43:09.039Z,10.27
2018-04-10T04:45:37.125Z,9.60
2018-04-10T04:48:05.413Z,10.77
2018-04-10T04:50:33.574Z,12.00
2018-04-10T04:53:01.500Z,13.83
2018-04-10T04:55:29.448Z,10.27
2018-04-10T04:57:57.784Z,9.60
2018-04-10T05:00:25.975Z,9.03
2018-04-10T05:02:53.840Z,10.10
2018-04-10T05:05:22.828Z,11.77
2018-04-10T05:07:50.882Z,11.63
2018-04-10T05:10:19.153Z,12.23
2018-04-10T05:12:47.368Z,10.20
2018-04-10T05:15:15.728Z,11.03
2018-04-10T05:17:45.973Z,10.17
2018-04-10T05:20:14.240Z,10.07
2018-04-10T05:22:42.513Z,12.47
2018-04-10T05:30:08.583Z,7.37
2018-04-10T05:32:37.564Z,7.60
2018-04-10T05:35:05.765Z,7.77
2018-04-10T05:37:33.774Z,7.20
2018-04-10T05:40:02.063Z,8.23
2018-04-10T05:42:30.333Z,9.60
2018-04-10T05:44:59.038Z,10.80
2018-04-10T05:47:27.129Z,11.23
2018-04-10T05:49:55.169Z,9.87
2018-04-10T05:52:23.542Z,10.43
2018-04-10T05:54:51.710Z,10.80
2018-04-10T05:57:20.495Z,11.40
2018-04-10T05:59:49.303Z,10.97
2018-04-10T06:02:17.434Z,12.00
2018-04-10T06:04:46.277Z,11.70
2018-04-10T06:07:14.350Z,11.67
2018-04-10T06:09:42.444Z,12.10
2018-04-10T06:12:10.806Z,10.10
2018-04-10T06:14:38.645Z,9.67
2018-04-10T06:17:06.716Z,9.20
2018-04-10T06:19:34.983Z,9.73
2018-04-10T06:22:03.161Z,9.90
2018-04-10T06:24:31.331Z,10.83
2018-04-10T06:26:59.322Z,9.67
2018-04-10T06:29:28.524Z,10.90
2018-04-10T06:31:56.779Z,10.90
2018-04-10T06:34:26.285Z,12.87
2018-04-10T06:36:54.998Z,9.30
2018-04-10T06:39:23.170Z,10.87
2018-04-10T06:41:51.944Z,9.90
2018-04-10T06:44:19.958Z,10.60
2018-04-10T06:46:48.082Z,10.63
2018-04-10T06:49:16.364Z,11.50
2018-04-10T06:51:44.345Z,10.87
2018-04-10T06:54:12.399Z,11.80
2018-04-10T06:56:41.180Z,11.00
2018-04-10T06:59:09.477Z,12.60
2018-04-10T07:01:37.780Z,10.83
2018-04-10T07:04:05.911Z,9.83
2018-04-10T07:06:34.781Z,10.13
2018-04-10T07:09:02.871Z,10.70
2018-04-10T07:11:31.045Z,12.27
2018-04-10T07:13:59.726Z,9.47
2018-04-10T07:16:28.420Z,10.17
2018-04-10T07:18:57.484Z,8.77
2018-04-10T07:21:25.592Z,10.77
2018-04-10T07:23:54.478Z,11.30
2018-04-10T07:26:23.463Z,10.87
2018-04-10T07:28:51.905Z,10.27
2018-04-10T07:31:20.214Z,10.23
2018-04-10T07:33:48.199Z,10.57
2018-04-10T07:36:16.270Z,11.37
2018-04-10T07:38:44.521Z,12.20
2018-04-10T07:41:12.508Z,9.57
2018-04-10T07:43:40.990Z,8.23
2018-04-10T07:46:09.243Z,11.00
2018-04-10T07:48:37.240Z,8.70
2018-04-10T07:51:06.334Z,10.47
2018-04-10T07:53:35.235Z,11.90
2018-04-10T07:56:03.337Z,9.50
2018-04-10T07:58:31.994Z,11.47
2018-04-10T08:00:59.913Z,11.30
2018-04-10T08:03:27.876Z,12.70
2018-04-10T08:05:55.991Z,11.10
2018-04-10T08:08:25.659Z,11.50
2018-04-10T08:10:54.497Z,9.97
2018-04-10T08:13:23.270Z,12.30
2018-04-10T08:15:51.636Z,9.17
2018-04-10T08:18:19.817Z,9.37
2018-04-10T08:20:48.771Z,11.67
2018-04-10T08:23:16.781Z,10.33
2018-04-10T08:25:45.589Z,10.77
2018-04-10T08:28:14.002Z,9.73
2018-04-10T08:30:42.256Z,11.20
2018-04-10T08:33:10.290Z,10.67
2018-04-10T08:35:38.502Z,10.30
2018-04-10T08:38:07.159Z,11.70
2018-04-10T08:40:35.261Z,12.70
2018-04-10T08:43:04.133Z,10.57
2018-04-10T08:45:32.324Z,10.50
2018-04-10T08:48:03.736Z,10.80
2018-04-10T08:50:32.466Z,11.00
2018-04-10T08:53:01.603Z,12.83
2018-04-10T08:55:29.921Z,9.50
2018-04-10T08:57:58.528Z,9.73
2018-04-10T09:00:26.575Z,9.53
2018-04-10T09:02:54.948Z,11.17
2018-04-10T09:05:23.022Z,9.90
2018-04-10T09:07:51.096Z,10.30
2018-04-10T09:10:20.195Z,11.77
2018-04-10T09:12:48.282Z,10.40
2018-04-10T09:15:16.532Z,11.10
2018-04-10T09:17:44.397Z,11.80
2018-04-10T09:20:13.924Z,12.13
2018-04-10T09:22:42.707Z,11.93
2018-04-10T09:25:11.685Z,9.70
2018-04-10T09:27:39.750Z,11.20
2018-04-10T09:30:07.827Z,9.83
2018-04-10T09:32:36.346Z,11.57
2018-04-10T09:35:04.658Z,10.90
2018-04-10T09:37:33.038Z,11.33
2018-04-10T09:40:01.047Z,10.60
2018-04-10T09:42:29.217Z,12.30
2018-04-10T09:44:57.382Z,11.03
2018-04-10T09:47:25.557Z,10.13
2018-04-10T09:49:53.626Z,10.90
2018-04-10T09:52:21.645Z,11.73
2018-04-10T09:54:50.597Z,11.10
2018-04-10T09:57:19.508Z,10.80
2018-04-10T09:59:47.551Z,11.80
2018-04-10T10:02:15.815Z,11.93
2018-04-10T10:04:44.610Z,12.00
2018-04-10T10:07:14.266Z,11.03
2018-04-10T10:09:42.506Z,12.57
2018-04-10T10:12:10.477Z,10.50
2018-04-10T10:14:39.049Z,11.37
2018-04-10T10:17:07.026Z,12.33
2018-04-10T10:19:35.021Z,9.50
2018-04-10T10:22:04.042Z,14.43
2018-04-10T10:24:32.169Z,16.17
2018-04-10T10:27:00.236Z,9.50
2018-04-10T10:29:28.342Z,15.53
2018-04-10T10:31:56.332Z,11.57
2018-04-10T10:34:25.397Z,11.70
2018-04-10T10:36:54.251Z,12.00
2018-04-10T10:39:22.452Z,13.10
2018-04-10T10:41:50.746Z,10.70
2018-04-10T10:44:19.742Z,12.33
2018-04-10T10:46:47.563Z,10.63
2018-04-10T10:49:15.982Z,11.53
2018-04-10T10:51:44.735Z,11.47
2018-04-10T10:54:12.519Z,13.60
2018-04-10T10:56:40.571Z,11.63
2018-04-10T10:59:08.509Z,10.70
2018-04-10T11:01:36.276Z,10.83
2018-04-10T11:04:04.023Z,12.47
2018-04-10T11:06:31.889Z,10.50
2018-04-10T11:08:59.843Z,11.43
2018-04-10T11:11:27.810Z,10.50
2018-04-10T11:13:55.758Z,10.97
2018-04-10T11:16:23.928Z,11.57
2018-04-10T11:18:51.738Z,12.53
2018-04-10T11:21:19.490Z,10.30
2018-04-10T11:23:48.272Z,9.80
2018-04-10T11:26:15.865Z,11.57
2018-04-10T11:28:43.768Z,10.83
2018-04-10T11:31:11.351Z,12.13
2018-04-10T11:33:39.104Z,9.57
2018-04-10T11:36:06.823Z,11.07
2018-04-10T11:38:35.624Z,10.77
2018-04-10T11:41:03.510Z,9.43
2018-04-10T11:43:31.600Z,10.80
2018-04-10T11:45:59.555Z,9.53
2018-04-10T11:48:27.528Z,10.80
2018-04-10T11:50:55.232Z,11.07
2018-04-10T11:53:23.691Z,12.07
2018-04-10T11:55:52.108Z,11.23
2018-04-10T11:58:20.940Z,11.60
2018-04-10T12:00:48.957Z,9.67
2018-04-10T12:03:16.780Z,10.70
2018-04-10T12:05:44.778Z,11.70
2018-04-10T12:08:13.325Z,10.97
2018-04-10T12:10:41.389Z,10.17
2018-04-10T12:13:09.479Z,11.00
2018-04-10T12:15:37.292Z,11.27
2018-04-10T12:18:04.965Z,10.60
2018-04-10T12:20:33.006Z,10.43
2018-04-10T12:23:00.761Z,9.93
2018-04-10T12:25:28.753Z,10.70
2018-04-10T12:27:56.549Z,10.23
2018-04-10T12:30:25.288Z,11.50
2018-04-10T12:32:53.241Z,28.97
2018-04-10T12:35:21.122Z,94.50
2018-04-10T12:37:48.926Z,125.73
2018-04-10T12:40:17.429Z,175.20
2018-04-10T12:42:45.383Z,287.57
2018-04-10T12:45:13.968Z,174.47
2018-04-10T12:47:42.048Z,169.93
2018-04-10T12:50:11.189Z,124.43
2018-04-10T12:52:39.199Z,98.50
2018-04-10T12:55:06.964Z,88.43
2018-04-10T12:57:35.804Z,65.83
2018-04-10T13:00:04.312Z,61.60
2018-04-10T13:02:31.970Z,60.53
2018-04-10T13:04:59.728Z,56.10
2018-04-10T13:07:27.550Z,48.53
2018-04-10T13:09:56.496Z,45.90
2018-04-10T13:12:24.437Z,43.03
2018-04-10T13:14:52.137Z,46.00
2018-04-10T13:17:19.821Z,38.00
2018-04-10T13:19:47.683Z,36.73
2018-04-10T13:22:15.996Z,37.90
2018-04-10T13:24:44.469Z,41.33
2018-04-10T13:27:12.183Z,38.93
2018-04-10T13:29:40.018Z,36.97
2018-04-10T13:32:07.947Z,39.57
2018-04-10T13:34:35.842Z,35.70
2018-04-10T13:37:03.690Z,36.10
2018-04-10T13:39:32.266Z,38.10
2018-04-10T13:42:01.623Z,39.90
2018-04-10T13:44:29.749Z,35.00
2018-04-10T13:46:58.033Z,31.90
2018-04-10T13:49:25.867Z,31.33
2018-04-10T13:51:53.473Z,34.67
2018-04-10T13:54:21.253Z,32.27
2018-04-10T13:56:50.018Z,35.37
2018-04-10T13:59:17.787Z,37.40
2018-04-10T14:01:45.716Z,31.70
2018-04-10T14:04:13.477Z,32.20
2018-04-10T14:06:41.203Z,35.40
2018-04-10T14:09:09.565Z,34.60
2018-04-10T14:11:41.460Z,31.60
2018-04-10T14:14:10.306Z,28.67
2018-04-10T14:16:37.946Z,26.87
2018-04-10T14:19:06.148Z,28.60
2018-04-10T14:21:33.881Z,26.17
2018-04-10T14:24:01.650Z,24.97
2018-04-10T14:26:29.793Z,25.80
2018-04-10T14:28:58.441Z,27.80
2018-04-10T14:31:27.296Z,28.17
2018-04-10T14:33:56.491Z,24.17
2018-04-10T14:36:24.574Z,22.87
2018-04-10T14:38:52.699Z,23.47
2018-04-10T14:41:21.354Z,24.30
2018-04-10T14:43:49.719Z,24.87
2018-04-10T14:46:17.383Z,22.97
2018-04-10T14:48:45.429Z,22.07
2018-04-10T14:51:14.091Z,24.90
2018-04-10T14:53:42.302Z,22.47
2018-04-10T14:56:10.245Z,24.27
2018-04-10T14:58:38.240Z,29.77
2018-04-10T15:01:06.950Z,22.60
2018-04-10T15:03:34.920Z,22.67
2018-04-10T15:06:02.888Z,21.87
2018-04-10T15:08:30.745Z,27.87
2018-04-10T15:10:58.541Z,23.53
2018-04-10T15:13:27.149Z,21.93
2018-04-10T15:15:54.997Z,20.80
2018-04-10T15:18:23.018Z,20.30
2018-04-10T15:20:50.816Z,25.87
2018-04-10T15:23:19.324Z,21.87
2018-04-10T15:25:47.172Z,19.93
2018-04-10T15:28:14.955Z,18.60
2018-04-10T15:30:42.724Z,24.07
2018-04-10T15:33:10.510Z,26.57
2018-04-10T15:35:38.953Z,17.63
2018-04-10T15:38:06.786Z,18.33
2018-04-10T15:40:34.969Z,20.43
2018-04-10T15:43:03.120Z,17.70
2018-04-10T15:45:31.184Z,19.60
2018-04-10T15:47:58.977Z,22.37
2018-04-10T15:50:27.324Z,25.30
2018-04-10T15:52:55.303Z,17.97
2018-04-10T15:55:23.079Z,19.60
2018-04-10T15:57:51.580Z,20.93
2018-04-10T16:00:19.357Z,19.30
2018-04-10T16:02:47.499Z,19.63
2018-04-10T16:05:16.101Z,17.23
2018-04-10T16:07:45.369Z,18.13
2018-04-10T16:10:13.193Z,16.60
2018-04-10T16:12:41.838Z,16.87
2018-04-10T16:15:09.640Z,17.33
2018-04-10T16:17:38.069Z,16.03
2018-04-10T16:20:05.709Z,16.10
2018-04-10T16:22:33.445Z,14.47
2018-04-10T16:25:01.086Z,16.00
2018-04-10T16:27:28.800Z,13.87
2018-04-10T16:29:57.152Z,14.83
2018-04-10T16:32:24.885Z,15.20
2018-04-10T16:34:52.696Z,17.27
2018-04-10T16:37:21.035Z,16.77
2018-04-10T16:39:49.202Z,20.43
2018-04-10T16:42:17.865Z,14.17
2018-04-10T16:44:45.728Z,14.17
2018-04-10T16:47:13.622Z,16.07
2018-04-10T16:49:41.747Z,14.47
2018-04-10T16:52:09.430Z,14.80
2018-04-10T16:54:37.710Z,16.30
2018-04-10T16:57:06.641Z,14.50
2018-04-10T16:59:34.758Z,15.10
2018-04-10T17:02:04.458Z,12.87
2018-04-10T17:04:32.877Z,15.93
2018-04-10T17:07:00.466Z,15.50
2018-04-10T17:09:29.831Z,13.43
2018-04-10T17:11:58.952Z,15.20
2018-04-10T17:14:26.980Z,13.97
2018-04-10T17:16:54.789Z,14.27
2018-04-10T17:19:22.369Z,13.70
2018-04-10T17:21:50.178Z,14.30
2018-04-10T17:24:18.344Z,15.83
2018-04-10T17:26:46.119Z,13.50
2018-04-10T17:29:14.796Z,14.10
2018-04-10T17:31:43.603Z,12.77
2018-04-10T17:34:11.762Z,12.97
2018-04-10T17:36:40.498Z,12.47
2018-04-10T17:39:08.252Z,12.90
2018-04-10T17:41:36.106Z,13.80
2018-04-10T17:44:04.671Z,15.30
2018-04-10T17:46:32.840Z,12.43
2018-04-10T17:49:01.917Z,11.93
2018-04-10T17:51:30.027Z,11.40
2018-04-10T17:53:58.579Z,12.27
2018-04-10T17:56:26.769Z,13.33
2018-04-10T17:58:58.633Z,12.10
2018-04-10T18:01:26.658Z,12.63
2018-04-10T18:03:54.487Z,13.93
2018-04-10T18:06:22.187Z,12.70
2018-04-10T18:08:49.943Z,12.07
2018-04-10T18:11:17.679Z,11.60
2018-04-10T18:13:45.493Z,12.57
2018-04-10T18:16:13.351Z,12.50
2018-04-10T18:18:42.107Z,14.13
2018-04-10T18:21:10.009Z,12.93
2018-04-10T18:23:37.925Z,13.00
2018-04-10T18:26:06.815Z,11.67
2018-04-10T18:28:35.199Z,10.77
2018-04-10T18:31:03.410Z,12.00
2018-04-10T18:33:31.401Z,11.50
2018-04-10T18:36:00.196Z,12.50
2018-04-10T18:38:28.297Z,11.60
2018-04-10T18:40:56.234Z,11.73
2018-04-10T18:43:24.254Z,11.57
2018-04-10T18:45:52.197Z,13.57
2018-04-10T18:48:21.086Z,11.77
2018-04-10T18:50:49.872Z,11.70
2018-04-10T18:53:18.250Z,10.50
2018-04-10T18:55:46.261Z,12.77
2018-04-10T18:58:14.853Z,11.70
2018-04-10T19:00:43.082Z,10.67
2018-04-10T19:03:11.556Z,11.50
2018-04-10T19:05:39.988Z,11.53
2018-04-10T19:08:10.159Z,10.87
2018-04-10T19:10:38.217Z,11.20
2018-04-10T19:13:06.722Z,11.90
2018-04-10T19:15:35.918Z,10.03
2018-04-10T19:18:03.934Z,10.10
2018-04-10T19:20:31.953Z,10.70
2018-04-10T19:22:59.806Z,11.67
2018-04-10T19:25:27.800Z,11.53
2018-04-10T19:27:55.648Z,9.40
2018-04-10T19:30:23.837Z,10.47
2018-04-10T19:32:51.833Z,10.70
2018-04-10T19:35:19.837Z,10.57
2018-04-10T19:37:49.667Z,9.37
2018-04-10T19:40:17.545Z,10.87
2018-04-10T19:42:45.342Z,10.17
2018-04-10T19:45:13.257Z,10.77
2018-04-10T19:47:41.438Z,9.60
2018-04-10T19:50:09.533Z,9.30
2018-04-10T19:52:37.383Z,12.90
2018-04-10T19:55:05.471Z,11.87
2018-04-10T19:57:35.356Z,9.63
2018-04-10T20:00:04.377Z,8.97
2018-04-10T20:02:32.612Z,10.37
2018-04-10T20:05:00.991Z,10.90
2018-04-10T20:07:29.814Z,11.03
2018-04-10T20:09:57.878Z,9.30
2018-04-10T20:12:26.138Z,9.90
2018-04-10T20:14:54.098Z,10.50
2018-04-10T20:17:22.726Z,11.03
2018-04-10T20:19:50.962Z,11.00
2018-04-10T20:22:19.121Z,11.20
2018-04-10T20:24:48.399Z,12.20
2018-04-10T20:27:17.518Z,7.13
2018-04-10T20:29:45.474Z,9.20
2018-04-10T20:32:14.024Z,8.10
2018-04-10T20:34:42.074Z,8.17
2018-04-10T20:37:10.112Z,8.20
2018-04-10T20:39:37.904Z,8.23
2018-04-10T20:42:05.888Z,8.53
2018-04-10T20:44:34.312Z,8.20
2018-04-10T20:47:02.086Z,10.77
2018-04-10T20:49:29.877Z,9.27
2018-04-10T20:51:57.681Z,8.20
2018-04-10T20:54:27.019Z,8.90
2018-04-10T20:56:54.879Z,8.40
2018-04-10T20:59:22.551Z,8.53
2018-04-10T21:01:50.223Z,9.17
2018-04-10T21:04:18.721Z,9.10
2018-04-10T21:06:46.446Z,8.37
2018-04-10T21:09:14.787Z,8.70
2018-04-10T21:11:43.325Z,10.43
2018-04-10T21:14:12.780Z,8.03
2018-04-10T21:16:40.860Z,8.47
2018-04-10T21:19:10.795Z,8.53
2018-04-10T21:21:38.853Z,9.37
2018-04-10T21:24:06.943Z,9.10
2018-04-10T21:26:34.835Z,9.57
2018-04-10T21:29:06.592Z,7.80
2018-04-10T21:31:35.121Z,8.77
2018-04-10T21:34:03.579Z,7.70
2018-04-10T21:36:31.973Z,7.97
2018-04-10T21:39:00.037Z,7.37
2018-04-10T21:41:28.991Z,7.83
2018-04-10T21:43:57.070Z,8.93
2018-04-10T21:46:25.321Z,9.10
2018-04-10T21:48:57.792Z,8.50
2018-04-10T21:51:26.135Z,7.70
2018-04-10T21:53:55.003Z,7.27
2018-04-10T21:56:23.304Z,7.70
2018-04-10T21:58:51.300Z,7.93
2018-04-10T22:01:19.191Z,8.23
2018-04-10T22:03:48.052Z,9.53
2018-04-10T22:06:16.184Z,9.10
2018-04-10T22:08:44.106Z,12.20
2018-04-10T22:11:11.874Z,8.20
2018-04-10T22:13:39.945Z,11.33
2018-04-10T22:16:08.487Z,15.20
2018-04-10T22:18:36.477Z,10.03
2018-04-10T22:21:04.542Z,10.70
2018-04-10T22:23:32.532Z,9.70
2018-04-10T22:26:00.366Z,10.60
2018-04-10T22:28:28.517Z,8.13
2018-04-10T22:30:57.297Z,10.20
2018-04-10T22:33:25.349Z,9.70
2018-04-10T22:35:54.027Z,10.70
2018-04-10T22:38:21.802Z,9.70
2018-04-10T22:40:50.527Z,10.50
2018-04-10T22:43:19.187Z,12.40
2018-04-10T22:45:47.167Z,9.90
2018-04-10T22:48:15.626Z,8.93
2018-04-10T22:50:43.610Z,9.00
2018-04-10T22:53:11.413Z,8.90
2018-04-10T22:55:39.577Z,8.30
2018-04-10T22:58:07.221Z,9.17
2018-04-10T23:00:36.306Z,9.03
2018-04-10T23:03:05.925Z,10.43
2018-04-10T23:05:34.272Z,10.30
2018-04-10T23:08:03.630Z,10.60
2018-04-10T23:10:34.036Z,8.07
2018-04-10T23:13:02.071Z,10.23
2018-04-10T23:15:33.033Z,12.03
2018-04-10T23:18:03.250Z,9.90
2018-04-10T23:20:31.982Z,6.70
2018-04-10T23:23:02.283Z,9.07
2018-04-10T23:25:30.407Z,7.27
2018-04-10T23:27:59.961Z,9.00
2018-04-10T23:30:29.416Z,9.70
2018-04-10T23:32:57.564Z,9.80
2018-04-10T23:35:26.146Z,8.63
2018-04-10T23:38:01.902Z,10.00
2018-04-10T23:40:31.391Z,8.57
2018-04-10T23:43:00.180Z,7.53
2018-04-10T23:45:28.779Z,7.50
2018-04-10T23:47:58.498Z,11.10
2018-04-10T23:50:28.056Z,6.50
2018-04-10T23:52:56.969Z,7.53
2018-04-10T23:55:26.094Z,6.67
2018-04-10T23:57:55.586Z,10.30
